Time;durP1;ratioP1;P1;durP2;ratioP2;P2;SDS_P1;SDS_P2;PMS_P1;PMS_P2;Temp;Humidity;BMP_temperature;BMP_pressure;BME280_temperature;BME280_humidity;BME280_pressure;Samples;Min_cycle;Max_cycle;Signal;HPM_P1;HPM_P2
2021/04/06 00:01:34;;;;;;;6.50;1.75;;;4.10;51.30;;;;;;5133106;27;20199;-51
2021/04/06 00:04:01;;;;;;;3.25;1.90;;;4.10;51.50;;;;;;5133354;27;20234;-50
2021/04/06 00:06:28;;;;;;;13.55;1.25;;;4.10;51.80;;;;;;5132505;27;20219;-50
2021/04/06 00:08:56;;;;;;;6.97;1.52;;;4.00;51.80;;;;;;5132593;27;20202;-50
2021/04/06 00:11:23;;;;;;;3.10;1.23;;;4.00;51.80;;;;;;5131280;27;20677;-51
2021/04/06 00:13:49;;;;;;;1.63;1.05;;;4.00;51.70;;;;;;5132778;27;20266;-50
2021/04/06 00:16:16;;;;;;;3.10;1.30;;;3.90;51.90;;;;;;5132835;27;20194;-51
2021/04/06 00:18:43;;;;;;;3.65;1.67;;;3.90;52.00;;;;;;5131209;27;20676;-51
2021/04/06 00:21:10;;;;;;;2.40;0.98;;;3.90;52.20;;;;;;5120670;27;20194;-51
2021/04/06 00:23:37;;;;;;;2.08;0.93;;;3.70;52.30;;;;;;5111557;28;20283;-51
2021/04/06 00:26:04;;;;;;;2.65;1.27;;;3.60;52.70;;;;;;5112217;28;20238;-51
2021/04/06 00:28:34;;;;;;;0.93;0.93;;;3.50;53.00;;;;;;5112154;28;20208;-50
2021/04/06 00:31:01;;;;;;;1.55;1.08;;;3.50;53.20;;;;;;5112369;28;20199;-50
2021/04/06 00:33:29;;;;;;;2.45;1.42;;;3.50;53.20;;;;;;5123304;27;20594;-50
2021/04/06 00:35:57;;;;;;;2.38;1.20;;;3.50;53.40;;;;;;5132707;27;20201;-50
2021/04/06 00:38:24;;;;;;;3.45;1.35;;;3.30;53.40;;;;;;5132342;27;20250;-50
2021/04/06 00:40:52;;;;;;;1.85;0.98;;;3.20;53.80;;;;;;5130068;27;20197;-50
2021/04/06 00:43:20;;;;;;;3.15;1.83;;;3.10;54.40;;;;;;5111852;28;20288;-51
2021/04/06 00:45:47;;;;;;;2.22;1.27;;;3.20;54.70;;;;;;5112530;28;20246;-51
2021/04/06 00:48:17;;;;;;;5.50;2.40;;;3.20;54.60;;;;;;5111699;28;20692;-51
2021/04/06 00:50:55;;;;;;;2.35;1.33;;;3.20;54.90;;;;;;5127287;28;20201;-51
2021/04/06 00:53:23;;;;;;;6.13;1.70;;;3.40;54.30;;;;;;5131946;27;20213;-52
2021/04/06 00:55:50;;;;;;;2.88;1.75;;;3.40;54.10;;;;;;5132331;27;20255;-51
2021/04/06 00:58:17;;;;;;;2.17;1.15;;;3.50;54.20;;;;;;5132665;27;20688;-51
2021/04/06 01:00:44;;;;;;;3.40;1.13;;;3.50;54.00;;;;;;5117603;27;20215;-51
2021/04/06 01:03:13;;;;;;;6.45;1.77;;;3.60;53.80;;;;;;5111859;28;20773;-51
2021/04/06 01:06:07;;;;;;;3.35;1.38;;;3.60;53.70;;;;;;5111823;28;20644;-51
2021/04/06 01:08:36;;;;;;;5.40;1.48;;;3.70;53.80;;;;;;5111151;28;20198;-51
2021/04/06 01:11:03;;;;;;;4.20;1.95;;;3.60;53.70;;;;;;5112201;28;20230;-51
2021/04/06 01:13:30;;;;;;;7.22;3.10;;;3.60;54.20;;;;;;5115520;27;20231;-51
2021/04/06 01:15:58;;;;;;;3.00;1.52;;;3.50;54.00;;;;;;5112225;28;20200;-51
2021/04/06 01:18:25;;;;;;;3.72;1.50;;;3.50;54.10;;;;;;5115342;28;20203;-51
2021/04/06 01:20:52;;;;;;;3.63;1.75;;;3.50;54.20;;;;;;5122350;27;20210;-52
2021/04/06 01:23:19;;;;;;;5.38;2.08;;;3.60;54.30;;;;;;5115675;27;20224;-51
2021/04/06 01:25:49;;;;;;;11.25;1.95;;;3.70;54.10;;;;;;5124174;27;20751;-51
2021/04/06 01:28:15;;;;;;;2.40;1.05;;;3.80;53.80;;;;;;5135389;27;20194;-51
2021/04/06 01:30:45;;;;;;;6.03;1.33;;;3.90;53.50;;;;;;5134167;27;20253;-51
2021/04/06 01:33:12;;;;;;;4.95;1.80;;;3.80;53.30;;;;;;5136215;27;20215;-52
2021/04/06 01:35:39;;;;;;;3.72;1.95;;;3.70;53.30;;;;;;5136029;27;20197;-51
2021/04/06 01:38:06;;;;;;;1.88;1.60;;;3.70;53.60;;;;;;5129557;27;20223;-51
2021/04/06 01:40:33;;;;;;;5.30;1.50;;;3.60;54.00;;;;;;5134025;27;20197;-51
2021/04/06 01:43:00;;;;;;;2.72;1.55;;;3.60;54.00;;;;;;5115168;28;20222;-51
2021/04/06 01:45:27;;;;;;;1.70;1.27;;;3.60;54.20;;;;;;5114888;27;20611;-51
2021/04/06 01:47:54;;;;;;;4.75;2.40;;;3.60;54.30;;;;;;5114991;28;20571;-51
2021/04/06 01:50:20;;;;;;;5.80;1.80;;;3.60;54.20;;;;;;5131068;27;20193;-53
2021/04/06 01:52:49;;;;;;;8.63;1.38;;;3.70;54.20;;;;;;5136963;27;20622;-52
2021/04/06 01:55:19;;;;;;;3.45;1.40;;;3.70;54.50;;;;;;5130792;27;20541;-52
2021/04/06 01:57:50;;;;;;;4.28;1.98;;;3.50;54.40;;;;;;5135108;27;20194;-51
2021/04/06 02:00:26;;;;;;;2.67;1.83;;;3.50;54.60;;;;;;5135680;27;20225;-52
2021/04/06 02:02:54;;;;;;;2.88;2.03;;;3.60;55.00;;;;;;5124940;27;20246;-51
2021/04/06 02:05:23;;;;;;;3.00;1.70;;;3.50;55.00;;;;;;5131205;27;20263;-52
2021/04/06 02:07:50;;;;;;;1.25;1.00;;;3.50;55.20;;;;;;5125736;27;20264;-52
2021/04/06 02:10:17;;;;;;;1.35;1.17;;;3.40;55.20;;;;;;5125367;27;20190;-51
2021/04/06 02:12:44;;;;;;;5.72;1.27;;;3.40;55.50;;;;;;5135420;27;20225;-51
2021/04/06 02:15:12;;;;;;;4.63;1.90;;;3.40;55.70;;;;;;5135587;27;20260;-51
2021/04/06 02:17:49;;;;;;;3.25;1.40;;;3.40;56.10;;;;;;5130943;27;20256;-51
2021/04/06 02:20:19;;;;;;;7.22;2.17;;;3.40;56.00;;;;;;5119213;27;20191;-52
2021/04/06 02:22:54;;;;;;;2.65;1.30;;;3.50;56.00;;;;;;5134978;27;20231;-52
2021/04/06 02:25:21;;;;;;;8.80;1.85;;;3.50;56.20;;;;;;5133496;27;20242;-51
2021/04/06 02:27:47;;;;;;;6.10;2.42;;;3.60;56.10;;;;;;5134173;27;20209;-51
2021/04/06 02:30:16;;;;;;;2.63;1.63;;;3.50;56.10;;;;;;5134812;27;20213;-51
2021/04/06 02:32:42;;;;;;;4.93;4.10;;;3.50;56.50;;;;;;5122701;27;20252;-52
2021/04/06 02:35:11;;;;;;;9.10;2.63;;;3.50;56.40;;;;;;5126868;27;20195;-52
2021/04/06 02:37:38;;;;;;;4.90;1.60;;;3.70;56.80;;;;;;5134575;27;20248;-52
2021/04/06 02:40:07;;;;;;;7.22;2.63;;;3.80;56.30;;;;;;5135050;27;20245;-52
2021/04/06 02:42:35;;;;;;;5.05;2.10;;;3.90;56.00;;;;;;5134326;27;20194;-52
2021/04/06 02:45:08;;;;;;;2.95;1.60;;;3.90;56.20;;;;;;5134927;27;20245;-52
2021/04/06 02:47:37;;;;;;;7.78;1.60;;;3.90;56.10;;;;;;5134296;27;20200;-52
2021/04/06 02:50:06;;;;;;;5.95;2.55;;;3.90;56.00;;;;;;5127384;27;20310;-51
2021/04/06 02:52:32;;;;;;;4.35;1.85;;;3.90;56.00;;;;;;5134433;27;20210;-52
2021/04/06 02:54:59;;;;;;;6.90;1.92;;;3.90;56.00;;;;;;5114951;27;20692;-51
2021/04/06 02:57:26;;;;;;;6.28;2.42;;;3.90;56.10;;;;;;5113898;28;20681;-52
2021/04/06 02:59:53;;;;;;;3.85;1.50;;;3.90;56.10;;;;;;5113479;28;20192;-51
2021/04/06 03:02:20;;;;;;;2.97;1.30;;;4.00;56.10;;;;;;5114440;27;20267;-51
2021/04/06 03:04:48;;;;;;;2.35;1.00;;;3.90;56.10;;;;;;5113498;28;20221;-52
2021/04/06 03:07:19;;;;;;;5.07;2.95;;;3.80;56.20;;;;;;5112216;28;20256;-51
2021/04/06 03:09:50;;;;;;;4.43;1.85;;;3.80;56.30;;;;;;5113715;28;20187;-52
2021/04/06 03:12:17;;;;;;;1.65;1.02;;;3.80;56.60;;;;;;5113796;28;20200;-51
2021/04/06 03:14:46;;;;;;;7.22;2.42;;;3.70;56.80;;;;;;5113333;28;20588;-51
2021/04/06 03:17:12;;;;;;;4.45;1.48;;;3.70;57.10;;;;;;5117763;27;20203;-52
2021/04/06 03:19:39;;;;;;;2.70;1.02;;;3.70;57.30;;;;;;5118184;27;20193;-52
2021/04/06 03:22:07;;;;;;;4.80;2.15;;;3.60;57.30;;;;;;5134198;27;20243;-51
2021/04/06 03:24:34;;;;;;;4.43;1.42;;;3.60;57.60;;;;;;5121294;27;20277;-51
2021/04/06 03:27:01;;;;;;;4.18;2.47;;;3.70;57.70;;;;;;5129023;27;20259;-52
2021/04/06 03:29:28;;;;;;;15.43;6.63;;;3.70;57.80;;;;;;5133344;27;20194;-52
2021/04/06 03:31:55;;;;;;;4.80;2.63;;;3.70;58.00;;;;;;5126930;27;20208;-52
2021/04/06 03:34:22;;;;;;;5.32;3.83;;;3.70;58.10;;;;;;5112706;27;20707;-51
2021/04/06 03:36:49;;;;;;;2.55;1.40;;;3.70;58.30;;;;;;5113280;28;20208;-52
2021/04/06 03:39:16;;;;;;;6.93;2.60;;;3.60;58.60;;;;;;5111989;28;20265;-51
2021/04/06 03:41:43;;;;;;;3.60;1.40;;;3.60;59.10;;;;;;5112688;28;20238;-51
2021/04/06 03:44:11;;;;;;;4.65;2.30;;;3.60;59.30;;;;;;5112685;28;20255;-52
2021/04/06 03:46:38;;;;;;;4.63;4.10;;;3.50;59.50;;;;;;5116423;27;20226;-52
2021/04/06 03:49:12;;;;;;;4.32;1.77;;;3.50;60.00;;;;;;5112554;28;20262;-52
2021/04/06 03:51:46;;;;;;;2.28;1.92;;;3.40;60.20;;;;;;5128888;27;20198;-52
2021/04/06 03:54:29;;;;;;;1.88;1.35;;;3.50;61.00;;;;;;5119304;27;20769;-53
2021/04/06 03:56:56;;;;;;;4.03;1.67;;;3.50;61.60;;;;;;5113037;27;20196;-52
2021/04/06 03:59:27;;;;;;;2.80;1.60;;;3.50;61.90;;;;;;5112906;27;20210;-53
2021/04/06 04:01:54;;;;;;;5.10;2.13;;;3.50;62.00;;;;;;5123097;27;20199;-53
2021/04/06 04:04:21;;;;;;;3.63;2.08;;;3.60;62.00;;;;;;5133018;27;20711;-52
2021/04/06 04:06:48;;;;;;;6.90;2.58;;;3.70;62.10;;;;;;5131531;27;20741;-52
2021/04/06 04:09:14;;;;;;;4.38;1.77;;;3.70;62.00;;;;;;5128826;27;20206;-53
2021/04/06 04:11:42;;;;;;;5.38;2.40;;;3.80;62.00;;;;;;5141139;27;20190;-52
2021/04/06 04:14:09;;;;;;;5.47;2.30;;;3.80;62.00;;;;;;5153661;27;20217;-52
2021/04/06 04:16:38;;;;;;;5.53;2.67;;;3.90;61.70;;;;;;5134526;27;20207;-52
2021/04/06 04:19:05;;;;;;;6.72;3.53;;;4.00;61.90;;;;;;5132850;27;20252;-52
2021/04/06 04:21:31;;;;;;;6.28;2.80;;;4.00;61.70;;;;;;5131437;27;20264;-52
2021/04/06 04:23:58;;;;;;;3.95;2.25;;;4.00;62.10;;;;;;5112199;28;20222;-52
2021/04/06 04:26:25;;;;;;;3.42;2.38;;;4.00;60.80;;;;;;5110688;28;20735;-53
2021/04/06 04:28:52;;;;;;;1.90;1.45;;;4.00;60.90;;;;;;5125015;27;20190;-52
2021/04/06 04:31:19;;;;;;;3.22;2.92;;;4.00;61.00;;;;;;5147177;27;20203;-53
2021/04/06 04:33:46;;;;;;;7.43;2.35;;;4.10;61.30;;;;;;5140319;27;20215;-53
2021/04/06 04:36:12;;;;;;;3.90;1.80;;;4.10;61.10;;;;;;5132562;27;20195;-53
2021/04/06 04:38:39;;;;;;;8.23;3.40;;;4.20;61.20;;;;;;5131755;27;20207;-52
2021/04/06 04:41:06;;;;;;;2.08;1.70;;;4.20;61.10;;;;;;5127383;27;20605;-52
2021/04/06 04:43:33;;;;;;;3.70;2.05;;;4.10;60.60;;;;;;5127410;27;20268;-52
2021/04/06 04:46:00;;;;;;;8.00;3.55;;;4.10;61.00;;;;;;5127710;27;20210;-53
2021/04/06 04:48:27;;;;;;;12.10;3.22;;;4.10;61.50;;;;;;5130349;28;20655;-53
2021/04/06 04:50:54;;;;;;;1.77;1.27;;;4.10;61.50;;;;;;5127493;27;20724;-52
2021/04/06 04:53:21;;;;;;;7.30;2.30;;;4.10;61.60;;;;;;5111911;28;20219;-52
2021/04/06 04:55:47;;;;;;;5.70;2.28;;;4.20;61.30;;;;;;5112085;28;20230;-52
2021/04/06 04:58:14;;;;;;;2.83;2.13;;;4.20;61.10;;;;;;5111866;28;20216;-53
2021/04/06 05:00:41;;;;;;;6.30;2.15;;;4.20;61.30;;;;;;5117042;28;20246;-53
2021/04/06 05:03:08;;;;;;;3.58;2.50;;;4.20;61.10;;;;;;5125080;28;20268;-53
2021/04/06 05:05:35;;;;;;;3.70;2.47;;;4.20;61.10;;;;;;5126306;27;20212;-53
2021/04/06 05:08:03;;;;;;;3.80;2.50;;;4.10;61.50;;;;;;5131230;28;20198;-53
2021/04/06 05:10:29;;;;;;;4.97;1.60;;;4.10;62.10;;;;;;5132034;27;20734;-53
2021/04/06 05:12:56;;;;;;;6.68;2.25;;;4.20;62.40;;;;;;5132094;27;20272;-53
2021/04/06 05:15:23;;;;;;;8.05;2.50;;;4.30;62.80;;;;;;5132370;27;20195;-53
2021/04/06 05:17:59;;;;;;;3.60;2.10;;;4.20;62.70;;;;;;5131252;27;20251;-53
2021/04/06 05:20:26;;;;;;;7.53;2.20;;;4.20;63.00;;;;;;5131986;27;20199;-52
2021/04/06 05:22:53;;;;;;;4.65;3.10;;;4.20;63.30;;;;;;5132175;27;20593;-53
2021/04/06 05:25:20;;;;;;;2.60;1.80;;;4.20;64.00;;;;;;5126146;27;20191;-51
2021/04/06 05:27:47;;;;;;;3.72;2.15;;;4.20;65.00;;;;;;5131280;27;20215;-51
2021/04/06 05:30:14;;;;;;;3.75;2.08;;;4.30;65.30;;;;;;5131312;27;20208;-51
2021/04/06 05:32:41;;;;;;;6.55;2.35;;;4.30;65.00;;;;;;5127139;27;20241;-52
2021/04/06 05:35:08;;;;;;;4.53;2.65;;;4.30;64.40;;;;;;5124737;28;20610;-51
2021/04/06 05:37:36;;;;;;;4.72;2.50;;;4.40;64.40;;;;;;5118055;28;20200;-51
2021/04/06 05:40:03;;;;;;;7.72;1.75;;;4.40;64.20;;;;;;5128255;28;20216;-51
2021/04/06 05:42:30;;;;;;;6.35;3.72;;;4.40;64.30;;;;;;5129267;27;20192;-51
2021/04/06 05:44:57;;;;;;;3.53;1.45;;;4.30;64.30;;;;;;5118073;28;20250;-51
2021/04/06 05:47:26;;;;;;;4.55;2.35;;;4.30;64.90;;;;;;5123664;27;20224;-51
2021/04/06 05:49:52;;;;;;;3.55;2.30;;;4.30;65.50;;;;;;5122469;28;20771;-52
2021/04/06 05:52:19;;;;;;;2.90;2.40;;;4.30;65.90;;;;;;5124165;27;20262;-51
2021/04/06 05:54:47;;;;;;;4.95;1.90;;;4.30;66.20;;;;;;5127116;27;20216;-52
2021/04/06 05:57:14;;;;;;;3.08;2.20;;;4.40;66.10;;;;;;5119985;28;20197;-52
2021/04/06 05:59:40;;;;;;;5.68;2.22;;;4.30;66.30;;;;;;5122700;28;20191;-52
2021/04/06 06:02:09;;;;;;;4.50;1.73;;;4.30;67.00;;;;;;5118664;27;20204;-52
2021/04/06 06:04:36;;;;;;;4.35;2.58;;;4.30;67.50;;;;;;5125939;27;20216;-52
2021/04/06 06:07:03;;;;;;;7.13;2.28;;;4.30;67.90;;;;;;5124539;27;20220;-53
2021/04/06 06:09:30;;;;;;;7.72;2.88;;;4.30;68.00;;;;;;5120627;27;20946;-53
2021/04/06 06:11:59;;;;;;;3.72;2.03;;;4.30;67.90;;;;;;5130112;27;20211;-53
2021/04/06 06:14:27;;;;;;;9.38;2.42;;;4.30;68.70;;;;;;5121404;27;20587;-53
2021/04/06 06:16:53;;;;;;;5.53;1.92;;;4.30;67.50;;;;;;5128695;27;20207;-52
2021/04/06 06:19:20;;;;;;;1.73;1.55;;;4.30;68.10;;;;;;5124422;27;20201;-51
2021/04/06 06:21:49;;;;;;;2.50;1.70;;;4.40;67.80;;;;;;5124408;27;20192;-52
2021/04/06 06:24:26;;;;;;;4.10;1.90;;;4.20;67.40;;;;;;5125007;27;20223;-52
2021/04/06 06:26:53;;;;;;;9.48;2.30;;;4.30;68.60;;;;;;5135088;27;20211;-52
2021/04/06 06:29:23;;;;;;;4.93;2.08;;;4.30;68.10;;;;;;5129331;27;20654;-51
2021/04/06 06:31:50;;;;;;;3.35;1.50;;;4.40;67.80;;;;;;5135111;27;20252;-51
2021/04/06 06:34:36;;;;;;;10.65;2.45;;;4.50;67.30;;;;;;5126013;27;20219;-52
2021/04/06 06:37:13;;;;;;;4.07;2.20;;;4.60;67.00;;;;;;5134315;27;20745;-52
2021/04/06 06:39:47;;;;;;;2.78;2.00;;;4.50;65.90;;;;;;5134398;27;20207;-52
2021/04/06 06:42:15;;;;;;;10.77;4.00;;;4.50;66.30;;;;;;5133869;27;20229;-52
2021/04/06 06:44:43;;;;;;;6.50;2.63;;;4.50;67.00;;;;;;5134320;27;20700;-52
2021/04/06 06:47:12;;;;;;;4.80;1.30;;;4.60;67.30;;;;;;5128707;27;20236;-52
2021/04/06 06:49:40;;;;;;;5.20;2.88;;;4.60;66.50;;;;;;5131668;27;20246;-53
2021/04/06 06:52:26;;;;;;;3.28;1.83;;;4.60;66.30;;;;;;5128017;27;20246;-52
2021/04/06 06:54:56;;;;;;;2.67;1.63;;;4.60;66.20;;;;;;5134421;27;20261;-52
2021/04/06 06:57:27;;;;;;;3.67;1.98;;;4.60;66.30;;;;;;5121773;27;20230;-53
2021/04/06 06:59:55;;;;;;;4.47;2.75;;;4.80;66.10;;;;;;5132616;27;20207;-52
2021/04/06 07:02:23;;;;;;;2.28;2.03;;;4.70;65.00;;;;;;5133532;27;20248;-53
2021/04/06 07:04:51;;;;;;;6.25;2.35;;;4.80;64.80;;;;;;5134121;27;20223;-53
2021/04/06 07:07:18;;;;;;;3.05;2.10;;;4.90;65.20;;;;;;5133237;27;20301;-53
2021/04/06 07:09:46;;;;;;;1.65;1.52;;;5.00;64.80;;;;;;5133893;27;20199;-52
2021/04/06 07:12:13;;;;;;;2.50;2.28;;;5.10;64.20;;;;;;5133796;27;20245;-52
2021/04/06 07:14:41;;;;;;;7.35;1.88;;;5.00;64.40;;;;;;5133810;27;20216;-53
2021/04/06 07:17:09;;;;;;;2.22;2.03;;;4.90;64.90;;;;;;5133494;27;20193;-53
2021/04/06 07:19:38;;;;;;;1.75;1.33;;;4.80;65.20;;;;;;5134314;27;20196;-53
2021/04/06 07:22:05;;;;;;;1.40;1.30;;;4.80;65.90;;;;;;5134433;27;20678;-52
2021/04/06 07:24:33;;;;;;;2.38;1.63;;;4.70;66.00;;;;;;5115434;27;20245;-52
2021/04/06 07:27:04;;;;;;;3.08;1.70;;;4.60;66.10;;;;;;5112820;28;20228;-51
2021/04/06 07:29:31;;;;;;;5.50;2.80;;;4.60;66.70;;;;;;5112972;28;20212;-52
2021/04/06 07:31:58;;;;;;;3.60;1.80;;;4.80;67.00;;;;;;5112888;27;20631;-52
2021/04/06 07:34:26;;;;;;;4.00;1.80;;;4.80;66.40;;;;;;5131228;27;20650;-51
2021/04/06 07:36:53;;;;;;;4.30;2.00;;;4.80;67.00;;;;;;5132068;27;20621;-51
2021/04/06 07:39:20;;;;;;;6.33;2.30;;;5.00;66.40;;;;;;5132389;27;20257;-52
2021/04/06 07:41:47;;;;;;;4.10;2.60;;;5.10;66.50;;;;;;5132759;27;20679;-53
2021/04/06 07:44:15;;;;;;;5.32;2.50;;;5.20;66.20;;;;;;5131409;27;20698;-51
2021/04/06 07:46:45;;;;;;;2.45;1.77;;;5.20;65.60;;;;;;5132341;27;20217;-51
2021/04/06 07:49:34;;;;;;;5.10;2.07;;;5.20;65.30;;;;;;5132888;27;20685;-52
2021/04/06 07:52:01;;;;;;;1.85;1.60;;;5.20;65.60;;;;;;5133646;27;20652;-51
2021/04/06 07:54:43;;;;;;;5.40;2.13;;;5.30;65.80;;;;;;5116705;27;20237;-52
2021/04/06 07:57:10;;;;;;;5.82;2.70;;;5.30;65.50;;;;;;5112223;28;20193;-53
2021/04/06 07:59:52;;;;;;;9.17;2.87;;;5.30;66.00;;;;;;5112346;27;20209;-52
2021/04/06 08:02:29;;;;;;;5.13;1.60;;;5.50;65.60;;;;;;5112436;28;20699;-52
2021/04/06 08:05:01;;;;;;;4.10;2.70;;;5.60;64.40;;;;;;5112234;28;21243;-52
2021/04/06 08:07:31;;;;;;;4.10;1.87;;;5.70;63.90;;;;;;5111832;27;20651;-52
2021/04/06 08:09:58;;;;;;;5.10;2.17;;;5.80;63.90;;;;;;5112463;28;20680;-51
2021/04/06 08:12:28;;;;;;;4.80;2.10;;;5.80;63.00;;;;;;5112487;28;20628;-52
2021/04/06 08:14:56;;;;;;;9.30;2.17;;;6.00;62.40;;;;;;5111898;28;20677;-52
2021/04/06 08:17:46;;;;;;;6.53;2.70;;;6.10;61.90;;;;;;5112265;28;20631;-52
2021/04/06 08:20:24;;;;;;;4.97;2.77;;;6.20;60.00;;;;;;5111285;28;20691;-50
2021/04/06 08:22:54;;;;;;;4.60;2.50;;;6.20;60.10;;;;;;5112102;28;20686;-52
2021/04/06 08:25:43;;;;;;;2.40;2.20;;;6.20;59.50;;;;;;5111383;28;20962;-52
2021/04/06 08:28:39;;;;;;;4.60;2.23;;;6.30;58.90;;;;;;5111756;28;20659;-53
2021/04/06 08:31:31;;;;;;;3.60;2.13;;;6.20;58.50;;;;;;5107691;28;20635;-52
2021/04/06 08:34:40;;;;;;;2.90;2.30;;;6.30;58.30;;;;;;5111733;28;20658;-52
2021/04/06 08:37:15;;;;;;;2.50;1.87;;;6.30;58.10;;;;;;5111545;28;20673;-53
2021/04/06 08:39:45;;;;;;;3.53;2.30;;;6.40;57.30;;;;;;5111894;28;20672;-51
2021/04/06 08:42:15;;;;;;;2.77;1.63;;;6.40;57.30;;;;;;5111814;28;20607;-51
2021/04/06 08:44:48;;;;;;;3.77;2.10;;;6.50;57.40;;;;;;5111022;28;20651;-51
2021/04/06 08:47:44;;;;;;;4.43;1.83;;;6.50;57.30;;;;;;5110175;27;20712;-52
2021/04/06 08:50:17;;;;;;;6.70;2.10;;;6.50;57.80;;;;;;5111720;28;20655;-52
2021/04/06 08:52:45;;;;;;;4.27;2.10;;;6.50;57.30;;;;;;5111557;28;20643;-51
2021/04/06 08:55:14;;;;;;;5.87;2.27;;;6.60;56.90;;;;;;5111522;28;20690;-52
2021/04/06 08:57:41;;;;;;;4.63;1.93;;;6.70;56.80;;;;;;5111349;28;20616;-51
2021/04/06 09:00:10;;;;;;;6.73;2.17;;;6.70;56.80;;;;;;5109961;28;20631;-51
2021/04/06 09:02:37;;;;;;;6.00;2.30;;;6.70;56.20;;;;;;5110745;28;20640;-51
2021/04/06 09:05:05;;;;;;;7.03;2.57;;;6.80;56.10;;;;;;5110480;28;20639;-51
2021/04/06 09:07:32;;;;;;;5.83;2.20;;;6.80;56.40;;;;;;5111044;28;20791;-51
2021/04/06 09:10:01;;;;;;;9.20;2.60;;;6.90;56.30;;;;;;5110871;28;20856;-51
2021/04/06 09:12:28;;;;;;;7.53;2.83;;;6.90;54.90;;;;;;5111529;28;20681;-52
2021/04/06 09:14:54;;;;;;;3.70;2.10;;;7.00;54.80;;;;;;5111383;28;21006;-52
2021/04/06 09:17:25;;;;;;;5.20;2.50;;;7.00;54.60;;;;;;5110912;28;20632;-51
2021/04/06 09:19:52;;;;;;;3.63;1.93;;;7.00;54.50;;;;;;5111393;28;20635;-50
2021/04/06 09:22:19;;;;;;;7.10;3.17;;;7.10;53.60;;;;;;5111021;28;20656;-52
2021/04/06 09:24:46;;;;;;;4.33;2.90;;;7.20;53.90;;;;;;5109745;28;20730;-51
2021/04/06 09:27:13;;;;;;;7.77;3.60;;;7.40;52.70;;;;;;5111380;28;20657;-52
2021/04/06 09:29:42;;;;;;;2.20;1.60;;;7.80;54.40;;;;;;5111529;28;20655;-51
2021/04/06 09:32:10;;;;;;;4.20;2.23;;;8.30;52.40;;;;;;5110803;28;20622;-51
2021/04/06 09:34:38;;;;;;;8.70;4.80;;;8.50;51.00;;;;;;5111158;28;20650;-51
2021/04/06 09:37:05;;;;;;;4.60;1.70;;;8.40;49.40;;;;;;5111293;28;20622;-51
2021/04/06 09:39:32;;;;;;;5.20;3.23;;;8.30;48.80;;;;;;5112403;28;20694;-51
2021/04/06 09:42:00;;;;;;;4.83;2.27;;;8.10;48.80;;;;;;5115239;28;20678;-51
2021/04/06 09:44:28;;;;;;;1.63;1.43;;;8.10;48.90;;;;;;5114873;28;20894;-51
2021/04/06 09:46:57;;;;;;;6.73;2.20;;;8.10;48.10;;;;;;5115206;27;20626;-52
2021/04/06 09:49:29;;;;;;;5.50;1.80;;;8.10;47.00;;;;;;5114977;28;21174;-52
2021/04/06 09:51:56;;;;;;;1.80;1.30;;;8.30;46.40;;;;;;5115647;28;20663;-52
2021/04/06 09:54:23;;;;;;;2.20;1.73;;;8.40;46.10;;;;;;5115323;27;21017;-52
2021/04/06 09:56:50;;;;;;;3.53;2.47;;;8.60;45.60;;;;;;5114762;28;20626;-52
2021/04/06 09:59:17;;;;;;;4.00;1.17;;;8.90;45.80;;;;;;5114881;28;20680;-51
2021/04/06 10:01:48;;;;;;;3.40;2.00;;;9.20;44.40;;;;;;5115001;28;20657;-52
2021/04/06 10:04:15;;;;;;;2.27;1.13;;;9.30;43.70;;;;;;5114553;28;20647;-52
2021/04/06 10:06:44;;;;;;;3.50;1.53;;;9.30;44.10;;;;;;5114089;28;20644;-52
2021/04/06 10:09:18;;;;;;;3.33;1.50;;;9.30;44.30;;;;;;5114748;28;20623;-52
2021/04/06 10:11:46;;;;;;;2.43;1.40;;;9.50;43.80;;;;;;5114757;28;20686;-52
2021/04/06 10:14:13;;;;;;;4.13;1.80;;;9.50;43.50;;;;;;5114738;28;21215;-52
2021/04/06 10:16:40;;;;;;;4.40;1.70;;;9.50;43.20;;;;;;5114513;28;21179;-53
2021/04/06 10:19:19;;;;;;;1.60;1.27;;;9.50;42.10;;;;;;5114583;28;20618;-52
2021/04/06 10:22:02;;;;;;;3.03;1.97;;;9.70;41.90;;;;;;5114698;28;20672;-52
2021/04/06 10:24:29;;;;;;;3.27;1.70;;;9.80;40.50;;;;;;5114430;28;20991;-52
2021/04/06 10:27:14;;;;;;;2.80;2.60;;;9.80;40.40;;;;;;5114049;28;20680;-52
2021/04/06 10:29:41;;;;;;;2.97;2.60;;;9.90;41.00;;;;;;5114018;28;21183;-51
2021/04/06 10:32:08;;;;;;;2.83;2.00;;;10.30;40.30;;;;;;5114554;28;20637;-52
2021/04/06 10:34:50;;;;;;;3.93;2.87;;;10.90;38.90;;;;;;5113913;28;20708;-52
2021/04/06 10:37:17;;;;;;;3.70;1.40;;;11.30;39.00;;;;;;5113891;28;20621;-53
2021/04/06 10:39:44;;;;;;;1.60;1.37;;;12.10;37.30;;;;;;5113955;28;20642;-53
2021/04/06 10:42:12;;;;;;;2.13;1.30;;;12.20;34.80;;;;;;5114894;27;21033;-52
2021/04/06 10:44:39;;;;;;;3.87;1.20;;;11.50;34.40;;;;;;5113921;28;20994;-52
2021/04/06 10:47:06;;;;;;;4.17;1.63;;;11.00;35.90;;;;;;5113869;28;20672;-51
2021/04/06 10:49:33;;;;;;;3.30;1.93;;;10.60;36.60;;;;;;5114167;28;20676;-51
2021/04/06 10:52:01;;;;;;;2.03;1.87;;;10.20;36.40;;;;;;5114257;28;20627;-52
2021/04/06 10:54:28;;;;;;;2.13;1.30;;;10.30;37.20;;;;;;5112978;28;20639;-51
2021/04/06 10:56:56;;;;;;;4.37;1.53;;;10.20;37.40;;;;;;5113715;27;20620;-51
2021/04/06 10:59:28;;;;;;;7.23;3.73;;;10.10;37.60;;;;;;5113672;28;20691;-51
2021/04/06 11:01:55;;;;;;;5.40;2.40;;;9.70;39.20;;;;;;5113721;28;20683;-50
2021/04/06 11:04:23;;;;;;;3.00;1.53;;;9.10;41.30;;;;;;5113591;28;20659;-51
2021/04/06 11:06:56;;;;;;;2.00;1.43;;;8.60;43.10;;;;;;5113813;28;20630;-55
2021/04/06 11:09:25;;;;;;;2.53;1.40;;;8.60;44.70;;;;;;5113141;28;20962;-51
2021/04/06 11:11:53;;;;;;;4.37;2.17;;;9.00;44.40;;;;;;5113384;28;20623;-51
2021/04/06 11:14:21;;;;;;;5.20;1.83;;;9.80;44.20;;;;;;5113416;28;20636;-51
2021/04/06 11:16:48;;;;;;;1.93;1.33;;;10.60;41.70;;;;;;5112958;27;20627;-52
2021/04/06 11:19:17;;;;;;;6.80;2.77;;;11.40;39.50;;;;;;5112772;28;20627;-52
2021/04/06 11:21:44;;;;;;;2.07;1.60;;;12.10;37.80;;;;;;5113037;28;20619;-52
2021/04/06 11:24:11;;;;;;;2.70;1.73;;;12.60;36.10;;;;;;5112855;27;20647;-51
2021/04/06 11:26:39;;;;;;;2.97;1.27;;;12.70;33.80;;;;;;5113002;28;20623;-51
2021/04/06 11:29:11;;;;;;;5.70;1.77;;;12.70;34.00;;;;;;5112614;28;20704;-50
2021/04/06 11:31:38;;;;;;;2.90;1.27;;;12.70;31.80;;;;;;5112696;28;20684;-51
2021/04/06 11:34:05;;;;;;;1.27;1.10;;;12.60;31.20;;;;;;5113078;28;20655;-51
2021/04/06 11:36:31;;;;;;;2.97;1.10;;;12.20;31.60;;;;;;5111453;28;20770;-51
2021/04/06 11:38:59;;;;;;;3.77;1.30;;;11.90;31.50;;;;;;5112522;27;20684;-52
2021/04/06 11:41:26;;;;;;;3.70;1.67;;;11.60;32.50;;;;;;5112733;28;20708;-52
2021/04/06 11:43:53;;;;;;;4.80;1.50;;;11.20;33.60;;;;;;5112853;27;20659;-51
2021/04/06 11:46:23;;;;;;;5.73;1.90;;;11.00;34.60;;;;;;5111215;28;20693;-51
2021/04/06 11:48:50;;;;;;;5.77;2.40;;;10.90;35.00;;;;;;5112372;28;20727;-52
2021/04/06 11:51:17;;;;;;;7.10;2.70;;;10.80;36.30;;;;;;5112876;28;20627;-52
2021/04/06 11:53:44;;;;;;;7.20;2.50;;;11.00;37.90;;;;;;5112416;28;21238;-52
2021/04/06 11:56:11;;;;;;;3.60;1.87;;;11.10;37.50;;;;;;5112796;28;20983;-51
2021/04/06 11:58:38;;;;;;;2.83;1.83;;;11.20;37.90;;;;;;5112309;28;20616;-52
2021/04/06 12:01:05;;;;;;;4.80;1.47;;;11.20;36.70;;;;;;5111678;28;20728;-52
2021/04/06 12:03:32;;;;;;;5.20;1.97;;;11.10;36.70;;;;;;5112338;28;20647;-50
2021/04/06 12:05:59;;;;;;;3.57;1.60;;;11.20;37.10;;;;;;5112000;28;20627;-51
2021/04/06 12:08:27;;;;;;;6.47;3.30;;;11.50;37.10;;;;;;5111208;28;20723;-53
2021/04/06 12:10:54;;;;;;;5.00;2.33;;;12.20;35.70;;;;;;5112250;28;20762;-50
2021/04/06 12:13:20;;;;;;;3.23;1.53;;;12.50;34.90;;;;;;5112205;28;21289;-50
2021/04/06 12:15:47;;;;;;;3.17;1.70;;;12.60;34.00;;;;;;5111893;28;20638;-52
2021/04/06 12:18:15;;;;;;;5.23;2.80;;;12.10;32.00;;;;;;5111573;27;20623;-51
2021/04/06 12:20:42;;;;;;;3.33;3.00;;;11.70;32.90;;;;;;5111939;28;20638;-51
2021/04/06 12:23:09;;;;;;;6.67;1.73;;;11.40;32.00;;;;;;5112018;28;20655;-51
2021/04/06 12:25:35;;;;;;;4.57;1.30;;;11.10;31.90;;;;;;5111985;28;20692;-52
2021/04/06 12:28:02;;;;;;;3.20;1.40;;;10.50;33.10;;;;;;5111037;28;20683;-51
2021/04/06 12:30:29;;;;;;;2.00;1.53;;;10.10;37.10;;;;;;5111424;28;20685;-50
2021/04/06 12:32:56;;;;;;;4.40;2.10;;;9.80;42.00;;;;;;5111359;28;21207;-51
2021/04/06 12:35:24;;;;;;;7.10;1.43;;;9.50;45.70;;;;;;5112294;28;20739;-50
2021/04/06 12:37:51;;;;;;;6.87;1.80;;;9.20;46.50;;;;;;5111540;28;20626;-51
2021/04/06 12:40:18;;;;;;;1.63;1.20;;;9.10;48.10;;;;;;5111781;28;20688;-50
2021/04/06 12:42:45;;;;;;;2.20;1.33;;;9.50;49.50;;;;;;5112082;28;20619;-51
2021/04/06 12:45:14;;;;;;;0.87;0.60;;;10.10;46.60;;;;;;5111478;28;20624;-52
2021/04/06 12:47:41;;;;;;;3.37;1.20;;;10.90;43.40;;;;;;5111414;28;21074;-51
2021/04/06 12:50:09;;;;;;;2.23;1.10;;;11.40;41.40;;;;;;5111977;28;20635;-51
2021/04/06 12:52:37;;;;;;;2.10;1.40;;;11.90;40.20;;;;;;5111432;28;20635;-51
2021/04/06 12:55:05;;;;;;;3.07;1.20;;;12.40;38.40;;;;;;5111904;28;20687;-51
2021/04/06 12:57:32;;;;;;;1.90;1.10;;;13.00;37.10;;;;;;5111157;28;20603;-52
2021/04/06 12:59:58;;;;;;;3.23;1.33;;;13.40;34.90;;;;;;5111302;28;20639;-52
2021/04/06 13:02:25;;;;;;;5.97;1.90;;;13.70;34.20;;;;;;5111278;28;21180;-51
2021/04/06 13:04:52;;;;;;;5.07;1.80;;;13.60;33.70;;;;;;5111854;28;21023;-50